HMN weather

Holloman Air Force Base
Alamogordo, New Mexico, United States

Public forecast

Using degrees Fahrenheit for public forecast. Weather courtesy of forecast.io.

Current aviation weather report (METAR) for Holloman Air Force Base

Retrieved 2019/10/16 21:58 UTC (60 minutes ago):

KHMN 162158Z AUTO 14005KT 10SM CLR 23/01 A3019 RMK AO2 SLP177 T02310008

Aviation forecast (TAF) for Holloman Air Force Base

Retrieved 2019/10/16 17:00 UTC (6 hours ago):

TAF TAF KHMN 161655Z 1617/1723 20012KT 9999 SKC QNH3020INS BECMG 1701/1702 VRB06KT 9999 SKC QNH3019INS BECMG 1715/1716 21009KT 9999 SKC QNH3015INS TX23/1623Z TN09/1713Z